Time;durP1;ratioP1;P1;durP2;ratioP2;P2;SDS_P1;SDS_P2;PMS_P1;PMS_P2;Temp;Humidity;BMP_temperature;BMP_pressure;BME280_temperature;BME280_humidity;BME280_pressure;Samples;Min_cycle;Max_cycle;Signal;HPM_P1;HPM_P2
2023/03/12 00:00:12;;;;;;;7.20;5.20;;;1.90;99.90;;;;;;5003248;28;20519;-68
2023/03/12 00:02:40;;;;;;;5.77;5.27;;;1.90;99.90;;;;;;5002077;28;20495;-67
2023/03/12 00:05:08;;;;;;;5.77;5.27;;;1.90;99.90;;;;;;5002048;28;21051;-67
2023/03/12 00:07:37;;;;;;;4.90;4.50;;;1.90;99.90;;;;;;5003018;28;20467;-67
2023/03/12 00:10:07;;;;;;;9.20;5.93;;;1.90;99.90;;;;;;5003638;28;20495;-67
2023/03/12 00:12:36;;;;;;;7.60;5.43;;;1.90;99.90;;;;;;5001907;28;20473;-67
2023/03/12 00:15:05;;;;;;;6.37;5.60;;;1.90;99.90;;;;;;5004067;28;20464;-67
2023/03/12 00:17:33;;;;;;;6.20;5.60;;;1.90;99.90;;;;;;4998874;28;20472;-68
2023/03/12 00:20:01;;;;;;;8.23;5.80;;;1.90;99.90;;;;;;5003772;28;20515;-68
2023/03/12 00:22:29;;;;;;;6.80;6.10;;;1.90;99.90;;;;;;4999909;28;20489;-68
2023/03/12 00:24:57;;;;;;;6.10;5.50;;;1.90;99.90;;;;;;5003128;28;20642;-67
2023/03/12 00:27:27;;;;;;;7.73;5.37;;;1.90;99.90;;;;;;5002772;28;20862;-67
2023/03/12 00:29:57;;;;;;;6.60;6.00;;;1.90;99.90;;;;;;5003545;28;20499;-68
2023/03/12 00:32:25;;;;;;;6.97;6.27;;;1.90;99.90;;;;;;5001863;28;20481;-68
2023/03/12 00:34:54;;;;;;;6.73;6.03;;;1.90;99.90;;;;;;5001239;28;20988;-67
2023/03/12 00:37:23;;;;;;;7.13;6.37;;;1.90;99.90;;;;;;5002827;28;20487;-69
2023/03/12 00:39:51;;;;;;;6.80;6.00;;;1.80;99.90;;;;;;5003769;28;20583;-68
2023/03/12 00:42:19;;;;;;;7.77;5.77;;;1.80;99.90;;;;;;5002858;28;20477;-67
2023/03/12 00:44:47;;;;;;;6.60;5.90;;;1.80;99.90;;;;;;5005021;28;20558;-67
2023/03/12 00:47:16;;;;;;;7.53;6.83;;;1.80;99.90;;;;;;4998209;28;20483;-67
2023/03/12 00:49:44;;;;;;;6.90;6.20;;;1.80;99.90;;;;;;5002555;28;20485;-67
2023/03/12 00:52:12;;;;;;;6.67;6.10;;;1.80;99.90;;;;;;5002413;28;20499;-67
2023/03/12 00:54:40;;;;;;;7.63;6.90;;;1.70;99.90;;;;;;5004309;28;20953;-66
2023/03/12 00:57:08;;;;;;;6.93;6.33;;;1.70;99.90;;;;;;4999518;28;20473;-67
2023/03/12 00:59:39;;;;;;;9.13;6.77;;;1.70;99.90;;;;;;5003218;28;20492;-67
2023/03/12 01:02:07;;;;;;;8.63;6.30;;;1.70;99.90;;;;;;5001254;28;20485;-67
2023/03/12 01:04:36;;;;;;;7.10;6.40;;;1.70;99.90;;;;;;5002060;28;20468;-67
2023/03/12 01:07:04;;;;;;;7.00;6.30;;;1.70;99.90;;;;;;4999843;28;20545;-66
2023/03/12 01:09:32;;;;;;;6.90;6.30;;;1.70;99.90;;;;;;5001924;28;20519;-67
2023/03/12 01:12:00;;;;;;;7.10;6.40;;;1.70;99.90;;;;;;5002284;28;20495;-67
2023/03/12 01:14:28;;;;;;;8.20;7.40;;;1.70;99.90;;;;;;4993252;28;20465;-67
2023/03/12 01:16:56;;;;;;;7.20;6.50;;;1.70;99.90;;;;;;5004030;28;21171;-67
2023/03/12 01:19:24;;;;;;;7.83;6.80;;;1.80;99.90;;;;;;5001294;28;21061;-67
2023/03/12 01:21:53;;;;;;;7.37;6.67;;;1.70;99.90;;;;;;4999985;28;20468;-67
2023/03/12 01:24:21;;;;;;;8.97;7.60;;;1.70;99.90;;;;;;5001904;28;20475;-67
2023/03/12 01:26:49;;;;;;;8.30;6.93;;;1.70;99.90;;;;;;5002952;28;20481;-67
2023/03/12 01:29:17;;;;;;;10.33;6.90;;;1.70;99.90;;;;;;4999094;28;20993;-67
2023/03/12 01:31:45;;;;;;;8.47;7.57;;;1.60;99.90;;;;;;5001640;28;20484;-67
2023/03/12 01:34:13;;;;;;;8.40;7.47;;;1.60;99.90;;;;;;5000183;28;20469;-67
2023/03/12 01:36:43;;;;;;;9.20;7.30;;;1.60;99.90;;;;;;5003846;28;20863;-67
2023/03/12 01:39:13;;;;;;;8.80;7.40;;;1.60;99.90;;;;;;5003289;28;20511;-67
2023/03/12 01:41:41;;;;;;;8.07;7.27;;;1.60;99.90;;;;;;5001825;28;20480;-66
2023/03/12 01:44:14;;;;;;;10.50;7.90;;;1.60;99.90;;;;;;4995853;28;20590;-68
2023/03/12 01:46:44;;;;;;;9.87;7.90;;;1.60;99.90;;;;;;5001324;28;20489;-67
2023/03/12 01:49:16;;;;;;;11.43;8.37;;;1.60;99.90;;;;;;5003328;28;20487;-68
2023/03/12 01:51:48;;;;;;;8.90;7.60;;;1.70;99.90;;;;;;5000973;28;20489;-69
2023/03/12 01:54:22;;;;;;;11.27;8.80;;;1.60;99.90;;;;;;5002397;28;20472;-68
2023/03/12 01:56:51;;;;;;;9.47;8.57;;;1.70;99.90;;;;;;5002203;28;20484;-67
2023/03/12 01:59:22;;;;;;;8.63;7.67;;;1.70;99.90;;;;;;5001286;28;21039;-67
2023/03/12 02:01:51;;;;;;;9.77;8.87;;;1.70;99.90;;;;;;5000419;28;20499;-67
2023/03/12 02:04:22;;;;;;;10.20;8.30;;;1.80;99.90;;;;;;5001344;28;20476;-68
2023/03/12 02:06:57;;;;;;;9.00;8.07;;;1.80;99.90;;;;;;5001547;28;20484;-67
2023/03/12 02:09:27;;;;;;;10.90;8.67;;;1.80;99.90;;;;;;5002209;28;20480;-67
2023/03/12 02:11:55;;;;;;;9.47;8.47;;;1.80;99.90;;;;;;5001359;28;20488;-68
2023/03/12 02:14:23;;;;;;;9.97;8.97;;;1.80;99.90;;;;;;5000714;28;20919;-68
2023/03/12 02:16:52;;;;;;;11.03;9.30;;;1.80;99.90;;;;;;4997322;28;20487;-68
2023/03/12 02:19:29;;;;;;;9.83;8.33;;;1.80;99.90;;;;;;5000174;28;20496;-68
2023/03/12 02:21:59;;;;;;;11.00;8.47;;;1.80;99.90;;;;;;4999019;28;20488;-67
2023/03/12 02:24:36;;;;;;;12.40;9.30;;;1.80;99.90;;;;;;5000716;28;20477;-67
2023/03/12 02:27:06;;;;;;;10.73;9.10;;;1.80;99.90;;;;;;5001368;28;20479;-67
2023/03/12 02:29:37;;;;;;;12.00;9.07;;;1.80;99.90;;;;;;5001720;28;20502;-69
2023/03/12 02:32:07;;;;;;;11.17;9.50;;;1.80;99.90;;;;;;5000945;28;20500;-71
2023/03/12 02:34:35;;;;;;;11.53;9.30;;;1.80;99.90;;;;;;5003400;28;20465;-68
2023/03/12 02:37:03;;;;;;;10.53;9.10;;;1.80;99.90;;;;;;5002294;28;20477;-67
2023/03/12 02:39:31;;;;;;;10.77;9.67;;;1.80;99.90;;;;;;5005285;28;20488;-68
2023/03/12 02:42:00;;;;;;;10.70;9.60;;;1.80;99.90;;;;;;5004758;28;20943;-67
2023/03/12 02:44:32;;;;;;;10.40;9.20;;;1.80;99.90;;;;;;5006249;28;20996;-67
2023/03/12 02:47:01;;;;;;;13.40;9.17;;;1.80;99.90;;;;;;5002767;28;20916;-67
2023/03/12 02:49:32;;;;;;;10.87;9.37;;;1.80;99.90;;;;;;5006107;28;20495;-69
2023/03/12 02:52:00;;;;;;;12.50;9.70;;;1.80;99.90;;;;;;5005028;28;20484;-68
2023/03/12 02:54:29;;;;;;;11.70;8.73;;;1.80;99.90;;;;;;5003826;28;20826;-67
2023/03/12 02:56:57;;;;;;;11.90;10.80;;;1.80;99.90;;;;;;5005133;28;20488;-69
2023/03/12 02:59:25;;;;;;;10.93;8.70;;;1.80;99.90;;;;;;5005593;28;21074;-67
2023/03/12 03:01:56;;;;;;;10.00;8.87;;;1.80;99.90;;;;;;5002469;28;21019;-68
2023/03/12 03:04:25;;;;;;;11.03;9.50;;;1.80;99.90;;;;;;5002723;28;20534;-67
2023/03/12 03:06:53;;;;;;;12.47;9.30;;;1.80;99.90;;;;;;5005059;28;20544;-66
2023/03/12 03:09:21;;;;;;;12.00;9.83;;;1.80;99.90;;;;;;5005909;28;20488;-67
2023/03/12 03:11:50;;;;;;;9.90;8.80;;;1.80;99.90;;;;;;5002944;28;20487;-67
2023/03/12 03:14:18;;;;;;;13.90;10.73;;;1.80;99.90;;;;;;5005655;28;20477;-68
2023/03/12 03:16:46;;;;;;;12.20;10.93;;;1.80;99.90;;;;;;5005839;28;20468;-67
2023/03/12 03:19:15;;;;;;;12.60;10.17;;;1.80;99.90;;;;;;5002951;28;20504;-68
2023/03/12 03:21:43;;;;;;;13.40;10.13;;;1.70;99.90;;;;;;5005338;28;20495;-67
2023/03/12 03:24:11;;;;;;;13.30;10.90;;;1.70;99.90;;;;;;5003848;28;20487;-67
2023/03/12 03:26:40;;;;;;;11.50;10.00;;;1.70;99.90;;;;;;5005295;28;20472;-67
2023/03/12 03:29:08;;;;;;;11.50;9.60;;;1.70;99.90;;;;;;5004399;28;20496;-67
2023/03/12 03:31:36;;;;;;;11.20;10.10;;;1.70;99.90;;;;;;5002741;28;20478;-67
2023/03/12 03:34:04;;;;;;;10.20;9.20;;;1.70;99.90;;;;;;5005698;28;20992;-67
2023/03/12 03:36:33;;;;;;;10.93;9.43;;;1.60;99.90;;;;;;5003430;28;20496;-69
2023/03/12 03:39:01;;;;;;;11.30;8.30;;;1.60;99.90;;;;;;5004940;28;20484;-67
2023/03/12 03:41:29;;;;;;;12.13;9.33;;;1.50;99.90;;;;;;5004143;28;20492;-67
2023/03/12 03:43:58;;;;;;;8.73;7.93;;;1.50;99.90;;;;;;5004624;28;20896;-67
2023/03/12 03:46:26;;;;;;;9.43;8.53;;;1.50;99.90;;;;;;5003843;28;20480;-68
2023/03/12 03:48:54;;;;;;;10.23;8.50;;;1.40;99.90;;;;;;5003612;28;20538;-68
2023/03/12 03:51:22;;;;;;;9.70;8.20;;;1.40;99.90;;;;;;5002239;28;20484;-67
2023/03/12 03:53:51;;;;;;;9.97;8.90;;;1.30;99.90;;;;;;5005242;28;20496;-68
2023/03/12 03:56:20;;;;;;;9.20;8.30;;;1.30;99.90;;;;;;5004104;28;20953;-68
2023/03/12 03:58:48;;;;;;;11.83;8.47;;;1.30;99.90;;;;;;5003329;28;20504;-67
2023/03/12 04:01:16;;;;;;;9.97;9.07;;;1.30;99.90;;;;;;5003199;28;20484;-67
2023/03/12 04:03:44;;;;;;;10.43;8.50;;;1.30;99.90;;;;;;5003700;28;20469;-67
2023/03/12 04:06:12;;;;;;;10.43;9.50;;;1.30;99.90;;;;;;5003152;28;20480;-67
2023/03/12 04:08:40;;;;;;;9.53;8.37;;;1.20;99.90;;;;;;5004553;28;20487;-66
2023/03/12 04:11:12;;;;;;;9.53;8.53;;;1.20;99.90;;;;;;5000032;28;20481;-67
2023/03/12 04:13:40;;;;;;;9.80;8.10;;;1.20;99.90;;;;;;5004504;28;20495;-66
2023/03/12 04:16:08;;;;;;;10.13;8.73;;;1.20;99.90;;;;;;5003679;28;20472;-66
2023/03/12 04:18:37;;;;;;;8.97;8.07;;;1.10;99.90;;;;;;5005733;28;20522;-67
2023/03/12 04:21:07;;;;;;;11.60;8.57;;;1.10;99.90;;;;;;5002948;28;20575;-67
2023/03/12 04:23:35;;;;;;;9.70;8.67;;;1.10;99.90;;;;;;5004064;28;20464;-67
2023/03/12 04:26:05;;;;;;;10.47;8.53;;;1.10;99.90;;;;;;5006010;28;20461;-67
2023/03/12 04:28:34;;;;;;;11.60;8.50;;;1.10;99.90;;;;;;5003121;28;20480;-68
2023/03/12 04:31:05;;;;;;;10.67;9.10;;;1.10;99.90;;;;;;5002607;28;20477;-68
2023/03/12 04:33:39;;;;;;;10.80;9.07;;;1.10;99.90;;;;;;5004553;28;20550;-68
2023/03/12 04:36:08;;;;;;;10.23;9.10;;;1.10;99.90;;;;;;5003503;28;21012;-67
2023/03/12 04:38:36;;;;;;;9.90;8.90;;;1.10;99.90;;;;;;5004560;28;20889;-67
2023/03/12 04:41:06;;;;;;;9.43;8.43;;;1.10;99.90;;;;;;5003561;28;20483;-69
2023/03/12 04:43:35;;;;;;;8.93;8.10;;;1.10;99.90;;;;;;5003036;28;20469;-67
2023/03/12 04:46:04;;;;;;;9.87;8.37;;;1.10;99.90;;;;;;5004547;28;20464;-68
2023/03/12 04:48:33;;;;;;;9.53;8.40;;;1.10;99.90;;;;;;5001079;28;20472;-67
2023/03/12 04:51:02;;;;;;;8.97;7.80;;;1.10;99.90;;;;;;5003372;28;20504;-67
2023/03/12 04:53:30;;;;;;;9.67;8.60;;;1.00;99.90;;;;;;5004024;28;20503;-67
2023/03/12 04:55:58;;;;;;;9.37;8.27;;;1.00;99.90;;;;;;5003752;28;20485;-67
2023/03/12 04:58:26;;;;;;;10.23;9.17;;;1.00;99.90;;;;;;5000851;28;20861;-68
2023/03/12 05:00:55;;;;;;;9.93;8.93;;;1.00;99.90;;;;;;5002216;28;20487;-68
2023/03/12 05:03:23;;;;;;;11.90;9.37;;;1.00;99.90;;;;;;5003240;28;20471;-69
2023/03/12 05:05:51;;;;;;;11.10;9.30;;;1.00;99.90;;;;;;5003959;28;20542;-68
2023/03/12 05:08:19;;;;;;;9.30;8.40;;;1.10;99.90;;;;;;5002962;28;20468;-68
2023/03/12 05:10:47;;;;;;;11.80;9.13;;;1.00;99.90;;;;;;5002810;28;20483;-68
2023/03/12 05:13:16;;;;;;;10.13;8.77;;;1.10;99.90;;;;;;5002471;28;20597;-67
2023/03/12 05:15:44;;;;;;;13.13;9.20;;;1.00;99.90;;;;;;5001434;28;20983;-67
2023/03/12 05:18:14;;;;;;;9.03;8.23;;;1.10;99.90;;;;;;5002997;28;20993;-67
2023/03/12 05:20:42;;;;;;;10.33;8.97;;;1.10;99.90;;;;;;5002304;28;20483;-67
2023/03/12 05:23:10;;;;;;;11.30;8.97;;;1.10;99.90;;;;;;5000960;28;20496;-68
2023/03/12 05:25:40;;;;;;;9.67;8.57;;;1.10;99.90;;;;;;5002954;28;20971;-67
2023/03/12 05:28:08;;;;;;;11.57;9.30;;;1.10;99.90;;;;;;5003539;28;20461;-68
2023/03/12 05:30:36;;;;;;;11.00;9.80;;;1.10;99.90;;;;;;5002333;28;20501;-68
2023/03/12 05:33:04;;;;;;;10.60;9.50;;;1.10;99.90;;;;;;5000640;28;20475;-69
2023/03/12 05:35:33;;;;;;;10.57;9.17;;;1.10;99.90;;;;;;5002233;28;20476;-68
2023/03/12 05:38:01;;;;;;;10.83;9.40;;;1.10;99.90;;;;;;5000065;28;20469;-67
2023/03/12 05:40:30;;;;;;;11.07;9.97;;;1.10;99.90;;;;;;5001734;28;20500;-67
2023/03/12 05:42:58;;;;;;;11.37;9.90;;;1.10;99.90;;;;;;5002460;28;20512;-68
2023/03/12 05:45:26;;;;;;;11.30;9.83;;;1.10;99.90;;;;;;5002916;28;20469;-67
2023/03/12 05:47:54;;;;;;;12.17;9.73;;;1.10;99.90;;;;;;5003048;28;20551;-68
2023/03/12 05:50:22;;;;;;;11.30;9.80;;;1.10;99.90;;;;;;5001612;28;20959;-66
2023/03/12 05:52:52;;;;;;;14.43;10.10;;;1.20;99.90;;;;;;5002750;28;20549;-67
2023/03/12 05:55:20;;;;;;;10.00;9.07;;;1.10;99.90;;;;;;5003738;28;21031;-67
2023/03/12 05:57:47;;;;;;;10.73;9.23;;;1.20;99.90;;;;;;5002870;28;20476;-68
2023/03/12 06:00:16;;;;;;;12.10;9.77;;;1.20;99.90;;;;;;5002468;28;20496;-68
2023/03/12 06:02:44;;;;;;;12.30;10.47;;;1.20;99.90;;;;;;5001079;28;20541;-68
2023/03/12 06:05:13;;;;;;;11.00;8.80;;;1.20;99.90;;;;;;5000732;28;20469;-68
2023/03/12 06:07:41;;;;;;;10.37;9.43;;;1.20;99.90;;;;;;5003443;28;20476;-68
2023/03/12 06:10:11;;;;;;;12.60;10.87;;;1.20;99.90;;;;;;5004234;28;20500;-67
2023/03/12 06:12:40;;;;;;;12.33;9.47;;;1.20;99.90;;;;;;5007413;28;20472;-68
2023/03/12 06:15:09;;;;;;;10.67;9.67;;;1.20;99.90;;;;;;5003532;28;20488;-69
2023/03/12 06:17:37;;;;;;;11.70;10.10;;;1.20;99.90;;;;;;5007129;28;20872;-68
2023/03/12 06:20:06;;;;;;;11.47;10.27;;;1.20;99.90;;;;;;5005992;28;20503;-67
2023/03/12 06:22:34;;;;;;;10.50;9.60;;;1.30;99.90;;;;;;5005780;28;20481;-67
2023/03/12 06:25:03;;;;;;;12.90;11.23;;;1.30;99.90;;;;;;5005151;28;21056;-67
2023/03/12 06:27:32;;;;;;;11.83;10.67;;;1.30;99.90;;;;;;5006824;28;20472;-68
2023/03/12 06:30:00;;;;;;;12.47;11.17;;;1.30;99.90;;;;;;5006109;28;20507;-67
2023/03/12 06:32:28;;;;;;;12.77;10.60;;;1.40;99.90;;;;;;5003312;28;20495;-68
2023/03/12 06:34:59;;;;;;;13.30;11.90;;;1.40;99.90;;;;;;5004928;28;20540;-67
2023/03/12 06:37:27;;;;;;;12.03;10.83;;;1.40;99.90;;;;;;5004992;28;20480;-69
2023/03/12 06:39:55;;;;;;;11.30;10.17;;;1.40;99.90;;;;;;5006541;28;20518;-67
2023/03/12 06:42:25;;;;;;;14.33;9.97;;;1.40;99.90;;;;;;5005002;28;20488;-68
2023/03/12 06:44:54;;;;;;;13.93;11.20;;;1.40;99.90;;;;;;5006964;28;20972;-67
2023/03/12 06:47:22;;;;;;;13.00;10.77;;;1.40;99.90;;;;;;5005245;28;20487;-68
2023/03/12 06:49:50;;;;;;;12.80;11.40;;;1.40;99.90;;;;;;5006294;28;20888;-67
2023/03/12 06:52:18;;;;;;;13.57;10.70;;;1.40;99.90;;;;;;5004653;28;21010;-68
2023/03/12 06:54:46;;;;;;;14.37;12.00;;;1.40;99.90;;;;;;5005753;28;21182;-67
2023/03/12 06:57:15;;;;;;;11.87;10.57;;;1.40;99.90;;;;;;5003057;28;20477;-67
2023/03/12 06:59:43;;;;;;;11.30;10.17;;;1.40;99.90;;;;;;5006384;28;20583;-67
2023/03/12 07:02:13;;;;;;;13.20;10.83;;;1.40;99.90;;;;;;5005042;28;20580;-68
2023/03/12 07:04:41;;;;;;;13.33;12.13;;;1.40;99.90;;;;;;5005951;28;20527;-68
2023/03/12 07:07:10;;;;;;;11.83;10.63;;;1.50;99.90;;;;;;5005092;28;20473;-67
2023/03/12 07:09:38;;;;;;;12.53;11.27;;;1.50;99.90;;;;;;5004781;28;20535;-67
2023/03/12 07:12:07;;;;;;;12.10;10.93;;;1.50;99.90;;;;;;5005864;28;20891;-67
2023/03/12 07:14:35;;;;;;;13.67;11.13;;;1.50;99.90;;;;;;5005776;28;21040;-68
2023/03/12 07:17:03;;;;;;;15.73;11.53;;;1.60;99.90;;;;;;5004905;28;20472;-68
2023/03/12 07:19:32;;;;;;;13.57;12.10;;;1.60;99.90;;;;;;5004574;28;20504;-68
2023/03/12 07:22:00;;;;;;;12.40;11.20;;;1.60;99.90;;;;;;5005311;28;20479;-66
2023/03/12 07:24:28;;;;;;;13.37;11.30;;;1.70;99.90;;;;;;5004084;28;20471;-67
2023/03/12 07:26:56;;;;;;;11.73;10.63;;;1.70;99.90;;;;;;5006103;28;20859;-67
2023/03/12 07:29:24;;;;;;;12.13;11.00;;;1.70;99.90;;;;;;5004303;28;20507;-67
2023/03/12 07:31:52;;;;;;;14.33;11.27;;;1.70;99.90;;;;;;5004665;28;20487;-68
2023/03/12 07:34:20;;;;;;;11.97;10.77;;;1.70;99.90;;;;;;5003787;28;20495;-68
2023/03/12 07:36:49;;;;;;;11.90;10.80;;;1.70;99.90;;;;;;5005172;28;20488;-67
2023/03/12 07:39:18;;;;;;;11.77;10.83;;;1.70;99.90;;;;;;5004119;28;20484;-67
2023/03/12 07:41:46;;;;;;;11.93;10.83;;;1.80;99.90;;;;;;5002555;28;20485;-67
2023/03/12 07:44:13;;;;;;;10.90;9.90;;;1.80;99.90;;;;;;5003894;28;20980;-68
2023/03/12 07:46:42;;;;;;;10.80;9.80;;;1.80;99.90;;;;;;5004415;28;20958;-67
2023/03/12 07:49:10;;;;;;;11.63;10.57;;;1.90;99.90;;;;;;5002886;28;20529;-68
2023/03/12 07:51:38;;;;;;;11.17;10.00;;;1.90;99.90;;;;;;5002765;28;20481;-67
2023/03/12 07:54:07;;;;;;;10.00;9.10;;;1.90;99.90;;;;;;5004498;28;20495;-67
2023/03/12 07:56:35;;;;;;;12.53;10.03;;;2.00;99.90;;;;;;5003926;28;20504;-68
2023/03/12 07:59:04;;;;;;;10.07;9.07;;;2.00;99.90;;;;;;5002492;28;20503;-68
2023/03/12 08:01:32;;;;;;;10.47;9.43;;;2.10;99.90;;;;;;5001779;28;20547;-67
2023/03/12 08:04:01;;;;;;;9.70;8.83;;;2.10;99.90;;;;;;5002899;28;20469;-67
2023/03/12 08:06:29;;;;;;;10.33;8.97;;;2.20;99.90;;;;;;4995520;28;20578;-67
2023/03/12 08:08:57;;;;;;;10.03;9.03;;;2.20;99.90;;;;;;5001563;28;20500;-68
2023/03/12 08:11:29;;;;;;;11.20;8.57;;;2.20;99.90;;;;;;5003836;28;20472;-67
2023/03/12 08:13:56;;;;;;;8.90;8.00;;;2.30;99.90;;;;;;5002851;28;20483;-68
2023/03/12 08:16:24;;;;;;;8.70;7.90;;;2.30;99.90;;;;;;5003233;28;20503;-67
2023/03/12 08:18:52;;;;;;;10.50;7.97;;;2.40;99.90;;;;;;5003002;28;20496;-69
2023/03/12 08:21:20;;;;;;;10.87;7.60;;;2.50;99.90;;;;;;5001895;28;20475;-68
2023/03/12 08:23:48;;;;;;;9.83;7.83;;;2.50;99.90;;;;;;5004611;28;20471;-68
2023/03/12 08:26:16;;;;;;;7.80;7.10;;;2.60;99.90;;;;;;5001429;28;20473;-68
2023/03/12 08:28:46;;;;;;;9.10;8.20;;;2.60;99.90;;;;;;5003505;28;20521;-68
2023/03/12 08:31:14;;;;;;;9.67;7.40;;;2.70;99.90;;;;;;5001700;28;20504;-68
2023/03/12 08:33:42;;;;;;;7.67;6.87;;;2.70;99.90;;;;;;5004447;28;20464;-68
2023/03/12 08:36:10;;;;;;;8.67;7.03;;;2.70;99.90;;;;;;5003869;28;21106;-68
2023/03/12 08:38:39;;;;;;;7.93;6.77;;;2.80;99.90;;;;;;5002883;28;20496;-68
2023/03/12 08:41:07;;;;;;;7.53;6.80;;;2.70;99.90;;;;;;5002803;28;20487;-67
2023/03/12 08:43:34;;;;;;;7.13;6.53;;;2.80;99.90;;;;;;5004648;28;20488;-68
2023/03/12 08:46:04;;;;;;;7.60;6.67;;;2.80;99.90;;;;;;4998897;28;20458;-67
2023/03/12 08:48:33;;;;;;;6.80;6.13;;;2.90;99.90;;;;;;5004050;28;20548;-68
2023/03/12 08:51:03;;;;;;;7.53;6.83;;;2.90;99.90;;;;;;5001251;28;20875;-67
2023/03/12 08:53:32;;;;;;;7.23;6.53;;;2.90;99.90;;;;;;5000555;28;20468;-67
2023/03/12 08:56:00;;;;;;;7.57;6.87;;;2.90;99.90;;;;;;5004920;28;20496;-68
2023/03/12 08:58:28;;;;;;;7.20;6.60;;;3.00;99.90;;;;;;5003067;28;20466;-69
2023/03/12 09:00:57;;;;;;;10.30;7.57;;;3.10;99.90;;;;;;5002963;28;20480;-69
2023/03/12 09:03:26;;;;;;;6.80;6.20;;;3.10;99.90;;;;;;5003910;28;20480;-68
2023/03/12 09:06:08;;;;;;;8.27;6.37;;;3.20;99.90;;;;;;5002489;28;20901;-68
2023/03/12 09:08:36;;;;;;;7.60;5.60;;;3.20;99.90;;;;;;5003558;28;20504;-68
2023/03/12 09:11:04;;;;;;;7.13;6.43;;;3.20;99.90;;;;;;5003336;28;20518;-70
2023/03/12 09:13:32;;;;;;;9.13;6.93;;;3.30;99.90;;;;;;5001394;28;20472;-68
2023/03/12 09:16:20;;;;;;;7.53;6.83;;;3.30;99.90;;;;;;5003052;28;20546;-69
2023/03/12 09:18:49;;;;;;;6.90;6.20;;;3.30;99.90;;;;;;5002875;28;20579;-67
2023/03/12 09:21:17;;;;;;;6.60;6.00;;;3.30;99.90;;;;;;5002666;28;20481;-69
2023/03/12 09:23:46;;;;;;;8.73;6.23;;;3.40;99.90;;;;;;5001425;28;20480;-69
2023/03/12 09:26:14;;;;;;;9.27;6.53;;;3.40;99.90;;;;;;5003113;28;20832;-69
2023/03/12 09:28:43;;;;;;;7.13;6.43;;;3.50;99.90;;;;;;5002450;28;21026;-68
2023/03/12 09:31:12;;;;;;;7.83;6.33;;;3.50;99.90;;;;;;5001205;28;20484;-69
2023/03/12 09:33:40;;;;;;;7.57;6.50;;;3.50;99.90;;;;;;5002435;28;20544;-69
2023/03/12 09:36:10;;;;;;;8.37;6.93;;;3.60;99.90;;;;;;5002853;28;20834;-69
2023/03/12 09:38:38;;;;;;;7.77;6.97;;;3.50;99.90;;;;;;5002669;28;20504;-68
2023/03/12 09:41:12;;;;;;;6.40;5.80;;;3.60;99.90;;;;;;5000853;28;20481;-69
2023/03/12 09:43:47;;;;;;;7.03;5.73;;;3.60;99.90;;;;;;5003622;28;20480;-68
2023/03/12 09:46:19;;;;;;;6.90;6.20;;;3.60;99.90;;;;;;5002057;28;20506;-68
2023/03/12 09:48:49;;;;;;;6.57;5.87;;;3.70;99.90;;;;;;5001376;28;20485;-68
2023/03/12 09:51:22;;;;;;;6.73;5.77;;;3.80;99.90;;;;;;5000616;28;20491;-68
2023/03/12 09:53:53;;;;;;;7.60;6.60;;;3.90;99.90;;;;;;5001840;28;20972;-68
2023/03/12 09:56:22;;;;;;;6.77;5.80;;;3.90;99.90;;;;;;5002611;28;20531;-68
2023/03/12 09:58:53;;;;;;;6.53;5.93;;;4.00;99.90;;;;;;5000614;28;20493;-68
2023/03/12 10:01:35;;;;;;;6.63;6.03;;;4.10;99.90;;;;;;5001451;28;20480;-68
2023/03/12 10:04:18;;;;;;;6.57;5.37;;;4.20;99.90;;;;;;5000993;28;20917;-67
2023/03/12 10:06:52;;;;;;;6.00;5.47;;;4.30;99.90;;;;;;5002157;28;20464;-67
2023/03/12 10:09:38;;;;;;;6.43;5.83;;;4.30;99.90;;;;;;5000954;28;20493;-68
2023/03/12 10:12:15;;;;;;;8.13;6.13;;;4.40;99.90;;;;;;5001444;28;20702;-68
2023/03/12 10:14:55;;;;;;;5.97;5.40;;;4.50;99.90;;;;;;4997043;28;20479;-69
2023/03/12 10:17:39;;;;;;;5.30;4.73;;;4.60;99.90;;;;;;5001377;28;20546;-68
2023/03/12 10:20:50;;;;;;;5.90;5.30;;;4.70;99.90;;;;;;5000427;28;20519;-68
2023/03/12 10:23:30;;;;;;;5.23;4.67;;;4.80;99.90;;;;;;4955103;28;20488;-68
2023/03/12 10:26:03;;;;;;;6.03;5.40;;;4.90;99.90;;;;;;5001093;28;20477;-68
2023/03/12 10:28:36;;;;;;;5.30;4.90;;;5.00;99.90;;;;;;5003434;28;20483;-68
2023/03/12 10:31:07;;;;;;;5.97;5.47;;;5.10;99.90;;;;;;5001288;28;20488;-69
2023/03/12 10:33:44;;;;;;;8.10;5.90;;;5.10;99.90;;;;;;5002050;28;20555;-68
2023/03/12 10:36:17;;;;;;;6.13;5.20;;;5.20;99.90;;;;;;5003004;28;20488;-69
2023/03/12 10:38:48;;;;;;;5.87;5.37;;;5.20;99.90;;;;;;5002784;28;20499;-68
2023/03/12 10:41:19;;;;;;;5.83;5.23;;;5.20;99.90;;;;;;5001597;28;20484;-68
2023/03/12 10:43:47;;;;;;;6.20;5.60;;;5.20;99.90;;;;;;5000236;28;20479;-68
2023/03/12 10:46:45;;;;;;;5.50;5.00;;;5.20;99.90;;;;;;5000729;28;20842;-68
2023/03/12 10:49:40;;;;;;;6.37;5.33;;;5.10;99.90;;;;;;4996816;28;20493;-68
2023/03/12 10:52:16;;;;;;;5.40;4.90;;;5.10;99.90;;;;;;4966601;28;20477;-68
2023/03/12 10:54:47;;;;;;;6.10;5.50;;;5.10;99.90;;;;;;4999699;28;20475;-68
2023/03/12 10:57:15;;;;;;;5.60;4.80;;;5.10;99.90;;;;;;5001135;28;20503;-68
2023/03/12 10:59:46;;;;;;;5.10;4.70;;;5.10;99.90;;;;;;5006281;28;20489;-68
2023/03/12 11:02:33;;;;;;;5.90;5.30;;;5.00;99.90;;;;;;5001983;28;20783;-68
2023/03/12 11:05:02;;;;;;;6.17;5.43;;;5.00;99.90;;;;;;5003168;28;21251;-68
2023/03/12 11:07:32;;;;;;;6.07;5.47;;;5.00;99.90;;;;;;5004945;28;20468;-68
2023/03/12 11:10:15;;;;;;;5.90;4.90;;;5.00;99.90;;;;;;5003857;28;20492;-68
2023/03/12 11:12:54;;;;;;;6.67;5.27;;;5.00;99.90;;;;;;5006048;28;20472;-68
2023/03/12 11:15:24;;;;;;;6.03;5.33;;;4.90;99.90;;;;;;5005755;28;20526;-68
2023/03/12 11:17:52;;;;;;;6.77;5.03;;;4.90;99.90;;;;;;5005889;28;20507;-68
2023/03/12 11:20:28;;;;;;;5.50;4.93;;;4.90;99.90;;;;;;5006664;28;20858;-68
2023/03/12 11:22:57;;;;;;;9.10;5.00;;;4.80;99.90;;;;;;5003930;28;20479;-68
2023/03/12 11:25:28;;;;;;;6.57;5.90;;;4.80;99.90;;;;;;5006741;28;20476;-68
2023/03/12 11:28:01;;;;;;;6.10;5.50;;;4.80;99.90;;;;;;5006430;28;20945;-68
2023/03/12 11:30:35;;;;;;;6.50;5.90;;;4.80;99.90;;;;;;5003929;28;21047;-68
2023/03/12 11:33:03;;;;;;;6.83;5.30;;;4.80;99.90;;;;;;5004930;28;20477;-68
2023/03/12 11:35:45;;;;;;;6.10;5.50;;;4.70;99.90;;;;;;5005346;28;20503;-68
2023/03/12 11:38:18;;;;;;;5.93;4.87;;;4.70;99.90;;;;;;5004660;28;20530;-68
2023/03/12 11:41:05;;;;;;;5.80;4.80;;;4.70;99.90;;;;;;5004296;28;20480;-68
2023/03/12 11:43:45;;;;;;;7.50;5.13;;;4.80;99.90;;;;;;5007073;28;20471;-68
2023/03/12 11:46:27;;;;;;;5.60;5.03;;;4.90;99.90;;;;;;5006710;28;20481;-68
2023/03/12 11:49:04;;;;;;;7.73;5.43;;;4.90;99.90;;;;;;5004316;28;20515;-68
2023/03/12 11:51:40;;;;;;;5.47;5.07;;;5.00;99.90;;;;;;5004036;28;20488;-68
2023/03/12 11:54:47;;;;;;;5.87;5.27;;;5.00;99.90;;;;;;5005142;28;20476;-68
2023/03/12 11:57:28;;;;;;;5.40;4.90;;;5.00;99.90;;;;;;4943418;28;20498;-68
2023/03/12 12:00:11;;;;;;;5.20;4.57;;;5.10;99.90;;;;;;5001001;28;20488;-68
2023/03/12 12:03:12;;;;;;;6.07;4.50;;;5.10;99.90;;;;;;5004626;28;20481;-68
2023/03/12 12:05:55;;;;;;;6.00;5.30;;;5.00;99.90;;;;;;4996306;28;20655;-68
2023/03/12 12:08:41;;;;;;;5.10;4.60;;;5.00;99.90;;;;;;5002753;28;20841;-68
2023/03/12 12:11:15;;;;;;;5.70;4.30;;;5.00;99.90;;;;;;5004582;28;20472;-67
2023/03/12 12:13:59;;;;;;;4.50;4.10;;;5.00;99.90;;;;;;5005702;28;20475;-68
2023/03/12 12:16:44;;;;;;;5.10;4.40;;;5.10;99.90;;;;;;5004526;28;20476;-67
2023/03/12 12:19:22;;;;;;;5.80;4.00;;;5.10;99.90;;;;;;5004891;28;20488;-67
2023/03/12 12:22:08;;;;;;;4.07;3.73;;;5.10;99.90;;;;;;5004134;28;20472;-67
2023/03/12 12:24:50;;;;;;;4.63;4.10;;;5.10;99.90;;;;;;5004266;28;20515;-68
2023/03/12 12:27:21;;;;;;;4.97;4.57;;;5.00;99.90;;;;;;5005675;28;21051;-67
2023/03/12 12:30:07;;;;;;;5.10;3.80;;;5.00;99.90;;;;;;5005467;28;20492;-68
2023/03/12 12:32:57;;;;;;;4.40;4.00;;;5.00;99.90;;;;;;5003782;28;20947;-67
2023/03/12 12:35:33;;;;;;;6.70;3.83;;;5.00;99.90;;;;;;5004414;28;20473;-68
2023/03/12 12:38:09;;;;;;;5.73;4.30;;;5.00;99.90;;;;;;5003393;28;20503;-68
2023/03/12 12:40:41;;;;;;;3.90;3.50;;;5.00;99.90;;;;;;5004671;28;20503;-68
2023/03/12 12:43:26;;;;;;;5.33;3.70;;;5.00;99.90;;;;;;5006152;28;20476;-68
2023/03/12 12:45:59;;;;;;;3.80;3.23;;;5.00;99.90;;;;;;5003810;28;20847;-68
2023/03/12 12:48:32;;;;;;;6.50;3.23;;;4.90;99.90;;;;;;5003767;28;20555;-68
2023/03/12 12:51:01;;;;;;;3.63;3.33;;;4.90;99.90;;;;;;5003915;28;20482;-68
2023/03/12 12:53:37;;;;;;;3.50;3.20;;;4.90;99.90;;;;;;5002827;28;20511;-68
2023/03/12 12:56:15;;;;;;;4.47;2.80;;;4.90;99.90;;;;;;5003299;28;20463;-68
2023/03/12 12:59:05;;;;;;;4.57;2.80;;;4.90;99.90;;;;;;5004791;28;20504;-67
2023/03/12 13:01:36;;;;;;;2.83;2.63;;;4.70;99.90;;;;;;5004608;28;20484;-68
2023/03/12 13:04:09;;;;;;;4.50;2.70;;;4.60;99.90;;;;;;5005190;28;22001;-67
2023/03/12 13:06:57;;;;;;;2.93;2.63;;;4.60;99.90;;;;;;5004628;28;20468;-68
2023/03/12 13:09:38;;;;;;;3.77;2.87;;;4.60;99.90;;;;;;5005056;28;20488;-68